sensor_id;sensor_type;location;lat;lon;timestamp;P1;durP1;ratioP1;P2;durP2;ratioP2
10509;SDS011;5303;53.266;10.410;2023-07-13T00:00:17;7.37;;;3.00;;
10509;SDS011;5303;53.266;10.410;2023-07-13T00:02:43;4.80;;;3.00;;
10509;SDS011;5303;53.266;10.410;2023-07-13T00:05:08;6.60;;;3.20;;
10509;SDS011;5303;53.266;10.410;2023-07-13T00:07:34;5.10;;;3.40;;
10509;SDS011;5303;53.266;10.410;2023-07-13T00:10:00;4.80;;;3.23;;
10509;SDS011;5303;53.266;10.410;2023-07-13T00:12:27;5.63;;;3.17;;
10509;SDS011;5303;53.266;10.410;2023-07-13T00:14:54;4.73;;;3.10;;
10509;SDS011;5303;53.266;10.410;2023-07-13T00:17:21;5.40;;;3.07;;
10509;SDS011;5303;53.266;10.410;2023-07-13T00:19:46;7.07;;;3.17;;
10509;SDS011;5303;53.266;10.410;2023-07-13T00:22:11;8.13;;;2.87;;
10509;SDS011;5303;53.266;10.410;2023-07-13T00:24:37;5.10;;;3.40;;
10509;SDS011;5303;53.266;10.410;2023-07-13T00:27:07;5.23;;;2.90;;
10509;SDS011;5303;53.266;10.410;2023-07-13T00:29:34;4.93;;;3.20;;
10509;SDS011;5303;53.266;10.410;2023-07-13T00:31:59;7.57;;;3.23;;
10509;SDS011;5303;53.266;10.410;2023-07-13T00:34:25;6.63;;;3.73;;
10509;SDS011;5303;53.266;10.410;2023-07-13T00:36:51;4.93;;;3.00;;
10509;SDS011;5303;53.266;10.410;2023-07-13T00:39:16;5.27;;;3.70;;
10509;SDS011;5303;53.266;10.410;2023-07-13T00:41:41;6.00;;;3.50;;
10509;SDS011;5303;53.266;10.410;2023-07-13T00:44:11;5.27;;;3.60;;
10509;SDS011;5303;53.266;10.410;2023-07-13T00:46:39;5.47;;;3.50;;
10509;SDS011;5303;53.266;10.410;2023-07-13T00:49:05;6.27;;;3.27;;
10509;SDS011;5303;53.266;10.410;2023-07-13T00:51:34;4.70;;;3.60;;
10509;SDS011;5303;53.266;10.410;2023-07-13T00:54:05;6.23;;;3.40;;
10509;SDS011;5303;53.266;10.410;2023-07-13T00:56:32;4.53;;;3.30;;
10509;SDS011;5303;53.266;10.410;2023-07-13T00:58:58;5.77;;;3.77;;
10509;SDS011;5303;53.266;10.410;2023-07-13T01:01:24;6.07;;;3.23;;
10509;SDS011;5303;53.266;10.410;2023-07-13T01:03:50;5.30;;;3.33;;
10509;SDS011;5303;53.266;10.410;2023-07-13T01:06:15;6.30;;;3.57;;
10509;SDS011;5303;53.266;10.410;2023-07-13T01:08:42;5.20;;;3.30;;
10509;SDS011;5303;53.266;10.410;2023-07-13T01:11:07;7.73;;;3.83;;
10509;SDS011;5303;53.266;10.410;2023-07-13T01:13:33;6.57;;;3.60;;
10509;SDS011;5303;53.266;10.410;2023-07-13T01:15:58;6.20;;;3.93;;
10509;SDS011;5303;53.266;10.410;2023-07-13T01:18:30;5.10;;;3.80;;
10509;SDS011;5303;53.266;10.410;2023-07-13T01:20:57;7.87;;;4.07;;
10509;SDS011;5303;53.266;10.410;2023-07-13T01:23:24;5.17;;;3.87;;
10509;SDS011;5303;53.266;10.410;2023-07-13T01:25:51;7.77;;;3.93;;
10509;SDS011;5303;53.266;10.410;2023-07-13T01:28:17;4.70;;;3.90;;
10509;SDS011;5303;53.266;10.410;2023-07-13T01:30:43;5.17;;;4.10;;
10509;SDS011;5303;53.266;10.410;2023-07-13T01:33:11;6.67;;;3.90;;
10509;SDS011;5303;53.266;10.410;2023-07-13T01:35:41;10.30;;;4.20;;
10509;SDS011;5303;53.266;10.410;2023-07-13T01:38:07;7.83;;;4.10;;
10509;SDS011;5303;53.266;10.410;2023-07-13T01:40:33;6.87;;;4.03;;
10509;SDS011;5303;53.266;10.410;2023-07-13T01:43:00;6.67;;;4.30;;
10509;SDS011;5303;53.266;10.410;2023-07-13T01:45:25;6.17;;;3.93;;
10509;SDS011;5303;53.266;10.410;2023-07-13T01:47:50;7.53;;;4.17;;
10509;SDS011;5303;53.266;10.410;2023-07-13T01:50:16;5.43;;;4.00;;
10509;SDS011;5303;53.266;10.410;2023-07-13T01:52:41;6.50;;;4.03;;
10509;SDS011;5303;53.266;10.410;2023-07-13T01:55:07;6.20;;;3.97;;
10509;SDS011;5303;53.266;10.410;2023-07-13T01:57:33;4.50;;;3.87;;
10509;SDS011;5303;53.266;10.410;2023-07-13T01:59:58;4.97;;;3.87;;
10509;SDS011;5303;53.266;10.410;2023-07-13T02:02:23;4.63;;;3.97;;
10509;SDS011;5303;53.266;10.410;2023-07-13T02:04:49;8.23;;;4.60;;
10509;SDS011;5303;53.266;10.410;2023-07-13T02:07:14;6.27;;;4.50;;
10509;SDS011;5303;53.266;10.410;2023-07-13T02:09:40;5.03;;;4.27;;
10509;SDS011;5303;53.266;10.410;2023-07-13T02:12:07;6.63;;;4.20;;
10509;SDS011;5303;53.266;10.410;2023-07-13T02:14:32;6.23;;;4.17;;
10509;SDS011;5303;53.266;10.410;2023-07-13T02:16:58;6.77;;;4.80;;
10509;SDS011;5303;53.266;10.410;2023-07-13T02:19:23;6.03;;;4.40;;
10509;SDS011;5303;53.266;10.410;2023-07-13T02:21:48;6.03;;;4.23;;
10509;SDS011;5303;53.266;10.410;2023-07-13T02:24:14;6.30;;;4.07;;
10509;SDS011;5303;53.266;10.410;2023-07-13T02:26:42;6.73;;;4.20;;
10509;SDS011;5303;53.266;10.410;2023-07-13T02:29:08;6.67;;;3.77;;
10509;SDS011;5303;53.266;10.410;2023-07-13T02:31:34;6.60;;;4.40;;
10509;SDS011;5303;53.266;10.410;2023-07-13T02:34:00;4.73;;;4.13;;
10509;SDS011;5303;53.266;10.410;2023-07-13T02:36:26;4.97;;;4.27;;
10509;SDS011;5303;53.266;10.410;2023-07-13T02:38:51;4.50;;;4.10;;
10509;SDS011;5303;53.266;10.410;2023-07-13T02:41:16;4.97;;;4.33;;
10509;SDS011;5303;53.266;10.410;2023-07-13T02:43:42;4.93;;;4.43;;
10509;SDS011;5303;53.266;10.410;2023-07-13T02:46:07;6.57;;;4.13;;
10509;SDS011;5303;53.266;10.410;2023-07-13T02:48:33;5.00;;;4.20;;
10509;SDS011;5303;53.266;10.410;2023-07-13T02:50:58;8.03;;;4.33;;
10509;SDS011;5303;53.266;10.410;2023-07-13T02:53:24;6.87;;;4.23;;
10509;SDS011;5303;53.266;10.410;2023-07-13T02:55:49;5.97;;;4.40;;
10509;SDS011;5303;53.266;10.410;2023-07-13T02:58:15;5.23;;;4.73;;
10509;SDS011;5303;53.266;10.410;2023-07-13T03:00:41;4.90;;;4.43;;
10509;SDS011;5303;53.266;10.410;2023-07-13T03:03:08;5.97;;;3.97;;
10509;SDS011;5303;53.266;10.410;2023-07-13T03:05:33;6.20;;;4.30;;
10509;SDS011;5303;53.266;10.410;2023-07-13T03:07:59;6.87;;;4.37;;
10509;SDS011;5303;53.266;10.410;2023-07-13T03:10:24;6.03;;;4.37;;
10509;SDS011;5303;53.266;10.410;2023-07-13T03:12:50;6.40;;;4.53;;
10509;SDS011;5303;53.266;10.410;2023-07-13T03:15:15;7.27;;;4.60;;
10509;SDS011;5303;53.266;10.410;2023-07-13T03:17:41;6.37;;;4.80;;
10509;SDS011;5303;53.266;10.410;2023-07-13T03:20:06;8.60;;;5.20;;
10509;SDS011;5303;53.266;10.410;2023-07-13T03:22:32;7.23;;;4.90;;
10509;SDS011;5303;53.266;10.410;2023-07-13T03:24:57;6.10;;;4.60;;
10509;SDS011;5303;53.266;10.410;2023-07-13T03:27:23;5.83;;;4.63;;
10509;SDS011;5303;53.266;10.410;2023-07-13T03:29:48;5.77;;;4.30;;
10509;SDS011;5303;53.266;10.410;2023-07-13T03:32:13;7.13;;;4.23;;
10509;SDS011;5303;53.266;10.410;2023-07-13T03:34:38;5.10;;;4.60;;
10509;SDS011;5303;53.266;10.410;2023-07-13T03:37:04;4.40;;;3.90;;
10509;SDS011;5303;53.266;10.410;2023-07-13T03:39:29;6.87;;;4.70;;
10509;SDS011;5303;53.266;10.410;2023-07-13T03:41:55;6.83;;;4.33;;
10509;SDS011;5303;53.266;10.410;2023-07-13T03:44:20;5.67;;;4.23;;
10509;SDS011;5303;53.266;10.410;2023-07-13T03:46:45;5.53;;;4.50;;
10509;SDS011;5303;53.266;10.410;2023-07-13T03:49:11;5.00;;;4.60;;
10509;SDS011;5303;53.266;10.410;2023-07-13T03:51:36;6.63;;;4.97;;
10509;SDS011;5303;53.266;10.410;2023-07-13T03:54:02;5.13;;;4.30;;
10509;SDS011;5303;53.266;10.410;2023-07-13T03:56:28;5.80;;;4.70;;
10509;SDS011;5303;53.266;10.410;2023-07-13T03:58:53;4.83;;;4.10;;
10509;SDS011;5303;53.266;10.410;2023-07-13T04:01:19;5.77;;;4.10;;
10509;SDS011;5303;53.266;10.410;2023-07-13T04:03:46;6.43;;;4.20;;
10509;SDS011;5303;53.266;10.410;2023-07-13T04:06:14;5.87;;;4.30;;
10509;SDS011;5303;53.266;10.410;2023-07-13T04:08:47;4.47;;;4.00;;
10509;SDS011;5303;53.266;10.410;2023-07-13T04:11:15;6.77;;;4.63;;
10509;SDS011;5303;53.266;10.410;2023-07-13T04:13:41;6.13;;;4.30;;
10509;SDS011;5303;53.266;10.410;2023-07-13T04:16:06;6.20;;;4.57;;
10509;SDS011;5303;53.266;10.410;2023-07-13T04:18:31;6.43;;;4.03;;
10509;SDS011;5303;53.266;10.410;2023-07-13T04:20:57;5.30;;;3.93;;
10509;SDS011;5303;53.266;10.410;2023-07-13T04:23:22;4.73;;;3.80;;
10509;SDS011;5303;53.266;10.410;2023-07-13T04:25:48;7.17;;;3.70;;
10509;SDS011;5303;53.266;10.410;2023-07-13T04:28:15;4.30;;;3.60;;
10509;SDS011;5303;53.266;10.410;2023-07-13T04:30:42;4.87;;;3.30;;
10509;SDS011;5303;53.266;10.410;2023-07-13T04:33:07;3.50;;;3.10;;
10509;SDS011;5303;53.266;10.410;2023-07-13T04:35:33;5.17;;;3.03;;
10509;SDS011;5303;53.266;10.410;2023-07-13T04:37:59;4.53;;;3.30;;
10509;SDS011;5303;53.266;10.410;2023-07-13T04:40:26;4.07;;;3.30;;
10509;SDS011;5303;53.266;10.410;2023-07-13T04:42:52;5.47;;;3.23;;
10509;SDS011;5303;53.266;10.410;2023-07-13T04:45:18;5.40;;;3.27;;
10509;SDS011;5303;53.266;10.410;2023-07-13T04:47:43;4.33;;;3.10;;
10509;SDS011;5303;53.266;10.410;2023-07-13T04:50:09;5.30;;;3.23;;
10509;SDS011;5303;53.266;10.410;2023-07-13T04:52:36;6.77;;;3.47;;
10509;SDS011;5303;53.266;10.410;2023-07-13T04:55:01;3.83;;;3.40;;
10509;SDS011;5303;53.266;10.410;2023-07-13T04:57:27;7.07;;;3.60;;
10509;SDS011;5303;53.266;10.410;2023-07-13T04:59:53;4.53;;;3.27;;
10509;SDS011;5303;53.266;10.410;2023-07-13T05:02:18;5.93;;;3.87;;
10509;SDS011;5303;53.266;10.410;2023-07-13T05:04:48;5.20;;;3.60;;
10509;SDS011;5303;53.266;10.410;2023-07-13T05:07:14;6.80;;;3.70;;
10509;SDS011;5303;53.266;10.410;2023-07-13T05:09:39;7.33;;;4.00;;
10509;SDS011;5303;53.266;10.410;2023-07-13T05:12:05;5.77;;;3.40;;
10509;SDS011;5303;53.266;10.410;2023-07-13T05:14:32;7.20;;;3.25;;
10509;SDS011;5303;53.266;10.410;2023-07-13T05:16:57;4.40;;;2.95;;
10509;SDS011;5303;53.266;10.410;2023-07-13T05:19:22;6.53;;;3.22;;
10509;SDS011;5303;53.266;10.410;2023-07-13T05:21:48;5.03;;;2.70;;
10509;SDS011;5303;53.266;10.410;2023-07-13T05:24:13;7.68;;;2.97;;
10509;SDS011;5303;53.266;10.410;2023-07-13T05:26:38;4.57;;;2.30;;
10509;SDS011;5303;53.266;10.410;2023-07-13T05:29:04;6.57;;;2.58;;
10509;SDS011;5303;53.266;10.410;2023-07-13T05:31:29;5.45;;;2.30;;
10509;SDS011;5303;53.266;10.410;2023-07-13T05:33:54;4.50;;;2.42;;
10509;SDS011;5303;53.266;10.410;2023-07-13T05:36:20;4.60;;;2.15;;
10509;SDS011;5303;53.266;10.410;2023-07-13T05:38:45;4.80;;;2.25;;
10509;SDS011;5303;53.266;10.410;2023-07-13T05:41:10;4.72;;;2.42;;
10509;SDS011;5303;53.266;10.410;2023-07-13T05:43:36;4.57;;;2.60;;
10509;SDS011;5303;53.266;10.410;2023-07-13T05:46:01;7.45;;;2.80;;
10509;SDS011;5303;53.266;10.410;2023-07-13T05:48:27;4.80;;;2.70;;
10509;SDS011;5303;53.266;10.410;2023-07-13T05:50:53;6.57;;;2.88;;
10509;SDS011;5303;53.266;10.410;2023-07-13T05:53:18;8.45;;;2.92;;
10509;SDS011;5303;53.266;10.410;2023-07-13T05:55:44;7.68;;;3.08;;
10509;SDS011;5303;53.266;10.410;2023-07-13T05:58:16;7.87;;;3.00;;
10509;SDS011;5303;53.266;10.410;2023-07-13T06:00:42;8.30;;;3.03;;
10509;SDS011;5303;53.266;10.410;2023-07-13T06:03:08;9.33;;;3.00;;
10509;SDS011;5303;53.266;10.410;2023-07-13T06:05:33;9.87;;;3.00;;
10509;SDS011;5303;53.266;10.410;2023-07-13T06:08:01;8.70;;;2.87;;
10509;SDS011;5303;53.266;10.410;2023-07-13T06:10:26;6.30;;;3.20;;
10509;SDS011;5303;53.266;10.410;2023-07-13T06:12:51;8.27;;;3.30;;
10509;SDS011;5303;53.266;10.410;2023-07-13T06:15:17;11.23;;;3.40;;
10509;SDS011;5303;53.266;10.410;2023-07-13T06:17:42;8.80;;;3.30;;
10509;SDS011;5303;53.266;10.410;2023-07-13T06:20:08;9.77;;;3.30;;
10509;SDS011;5303;53.266;10.410;2023-07-13T06:22:34;7.90;;;3.10;;
10509;SDS011;5303;53.266;10.410;2023-07-13T06:24:59;10.27;;;3.23;;
10509;SDS011;5303;53.266;10.410;2023-07-13T06:27:24;10.93;;;3.47;;
10509;SDS011;5303;53.266;10.410;2023-07-13T06:29:50;8.83;;;3.00;;
10509;SDS011;5303;53.266;10.410;2023-07-13T06:32:15;10.10;;;3.90;;
10509;SDS011;5303;53.266;10.410;2023-07-13T06:34:40;8.00;;;3.30;;
10509;SDS011;5303;53.266;10.410;2023-07-13T06:37:06;8.57;;;3.30;;
10509;SDS011;5303;53.266;10.410;2023-07-13T06:39:32;10.33;;;3.40;;
10509;SDS011;5303;53.266;10.410;2023-07-13T06:41:57;8.23;;;3.13;;
10509;SDS011;5303;53.266;10.410;2023-07-13T06:44:22;13.83;;;3.33;;
10509;SDS011;5303;53.266;10.410;2023-07-13T06:46:48;8.90;;;3.30;;
10509;SDS011;5303;53.266;10.410;2023-07-13T06:49:13;9.97;;;3.70;;
10509;SDS011;5303;53.266;10.410;2023-07-13T06:51:38;9.30;;;3.40;;
10509;SDS011;5303;53.266;10.410;2023-07-13T06:54:03;9.13;;;3.03;;
10509;SDS011;5303;53.266;10.410;2023-07-13T06:56:29;11.30;;;3.97;;
10509;SDS011;5303;53.266;10.410;2023-07-13T06:58:54;13.57;;;3.80;;
10509;SDS011;5303;53.266;10.410;2023-07-13T07:01:19;9.13;;;3.33;;
10509;SDS011;5303;53.266;10.410;2023-07-13T07:03:45;10.43;;;3.37;;
10509;SDS011;5303;53.266;10.410;2023-07-13T07:06:17;11.07;;;3.63;;
10509;SDS011;5303;53.266;10.410;2023-07-13T07:08:44;8.80;;;3.47;;
10509;SDS011;5303;53.266;10.410;2023-07-13T07:11:14;8.87;;;3.30;;
10509;SDS011;5303;53.266;10.410;2023-07-13T07:13:44;8.87;;;3.33;;
10509;SDS011;5303;53.266;10.410;2023-07-13T07:16:09;10.67;;;2.97;;
10509;SDS011;5303;53.266;10.410;2023-07-13T07:18:34;8.37;;;3.10;;
10509;SDS011;5303;53.266;10.410;2023-07-13T07:21:00;9.53;;;3.03;;
10509;SDS011;5303;53.266;10.410;2023-07-13T07:23:25;8.77;;;3.20;;
10509;SDS011;5303;53.266;10.410;2023-07-13T07:25:51;8.53;;;3.30;;
10509;SDS011;5303;53.266;10.410;2023-07-13T07:28:17;10.33;;;3.23;;
10509;SDS011;5303;53.266;10.410;2023-07-13T07:30:43;9.43;;;3.30;;
10509;SDS011;5303;53.266;10.410;2023-07-13T07:33:10;12.13;;;3.30;;
10509;SDS011;5303;53.266;10.410;2023-07-13T07:35:35;8.47;;;3.30;;
10509;SDS011;5303;53.266;10.410;2023-07-13T07:38:00;7.80;;;3.07;;
10509;SDS011;5303;53.266;10.410;2023-07-13T07:40:26;12.77;;;3.30;;
10509;SDS011;5303;53.266;10.410;2023-07-13T07:42:51;8.60;;;3.60;;
10509;SDS011;5303;53.266;10.410;2023-07-13T07:45:17;8.40;;;3.20;;
10509;SDS011;5303;53.266;10.410;2023-07-13T07:47:42;11.30;;;3.40;;
10509;SDS011;5303;53.266;10.410;2023-07-13T07:50:08;8.97;;;3.23;;
10509;SDS011;5303;53.266;10.410;2023-07-13T07:52:34;7.50;;;3.00;;
10509;SDS011;5303;53.266;10.410;2023-07-13T07:54:59;12.40;;;3.00;;
10509;SDS011;5303;53.266;10.410;2023-07-13T07:57:26;8.40;;;3.23;;
10509;SDS011;5303;53.266;10.410;2023-07-13T07:59:51;7.83;;;3.27;;
10509;SDS011;5303;53.266;10.410;2023-07-13T08:02:16;10.80;;;3.43;;
10509;SDS011;5303;53.266;10.410;2023-07-13T08:04:42;10.50;;;3.33;;
10509;SDS011;5303;53.266;10.410;2023-07-13T08:07:07;11.53;;;3.53;;
10509;SDS011;5303;53.266;10.410;2023-07-13T08:09:32;12.20;;;3.20;;
10509;SDS011;5303;53.266;10.410;2023-07-13T08:11:58;6.63;;;2.83;;
10509;SDS011;5303;53.266;10.410;2023-07-13T08:14:23;4.90;;;2.97;;
10509;SDS011;5303;53.266;10.410;2023-07-13T08:16:48;9.10;;;3.17;;
10509;SDS011;5303;53.266;10.410;2023-07-13T08:19:14;10.13;;;2.93;;
10509;SDS011;5303;53.266;10.410;2023-07-13T08:21:39;10.83;;;3.40;;
10509;SDS011;5303;53.266;10.410;2023-07-13T08:24:05;8.67;;;2.70;;
10509;SDS011;5303;53.266;10.410;2023-07-13T08:26:31;7.07;;;2.97;;
10509;SDS011;5303;53.266;10.410;2023-07-13T08:28:56;7.53;;;2.93;;
10509;SDS011;5303;53.266;10.410;2023-07-13T08:31:21;6.60;;;2.97;;
10509;SDS011;5303;53.266;10.410;2023-07-13T08:33:47;9.30;;;3.00;;
10509;SDS011;5303;53.266;10.410;2023-07-13T08:36:12;10.67;;;3.23;;
10509;SDS011;5303;53.266;10.410;2023-07-13T08:38:37;8.33;;;2.60;;
10509;SDS011;5303;53.266;10.410;2023-07-13T08:41:09;7.00;;;3.00;;
10509;SDS011;5303;53.266;10.410;2023-07-13T08:43:38;13.73;;;3.07;;
10509;SDS011;5303;53.266;10.410;2023-07-13T08:46:09;7.43;;;3.03;;
10509;SDS011;5303;53.266;10.410;2023-07-13T08:48:41;8.77;;;2.83;;
10509;SDS011;5303;53.266;10.410;2023-07-13T08:53:46;9.77;;;3.30;;
10509;SDS011;5303;53.266;10.410;2023-07-13T08:56:19;6.30;;;2.70;;
10509;SDS011;5303;53.266;10.410;2023-07-13T08:58:48;7.77;;;2.70;;
10509;SDS011;5303;53.266;10.410;2023-07-13T09:01:31;6.87;;;2.80;;
10509;SDS011;5303;53.266;10.410;2023-07-13T09:04:08;6.37;;;3.00;;
10509;SDS011;5303;53.266;10.410;2023-07-13T09:06:59;5.93;;;2.70;;
10509;SDS011;5303;53.266;10.410;2023-07-13T09:09:48;9.90;;;2.57;;
10509;SDS011;5303;53.266;10.410;2023-07-13T09:14:49;8.10;;;2.67;;
10509;SDS011;5303;53.266;10.410;2023-07-13T09:17:27;7.90;;;2.55;;
10509;SDS011;5303;53.266;10.410;2023-07-13T09:22:52;5.53;;;2.37;;
10509;SDS011;5303;53.266;10.410;2023-07-13T09:27:56;8.00;;;2.60;;
10509;SDS011;5303;53.266;10.410;2023-07-13T09:30:53;7.90;;;2.50;;
10509;SDS011;5303;53.266;10.410;2023-07-13T09:33:26;18.63;;;7.67;;
10509;SDS011;5303;53.266;10.410;2023-07-13T09:35:54;22.27;;;6.25;;
10509;SDS011;5303;53.266;10.410;2023-07-13T09:38:21;6.93;;;2.30;;
10509;SDS011;5303;53.266;10.410;2023-07-13T09:40:59;25.88;;;8.10;;
10509;SDS011;5303;53.266;10.410;2023-07-13T09:43:25;4.97;;;2.27;;
10509;SDS011;5303;53.266;10.410;2023-07-13T09:45:53;5.30;;;2.03;;
10509;SDS011;5303;53.266;10.410;2023-07-13T09:48:20;5.03;;;2.00;;
10509;SDS011;5303;53.266;10.410;2023-07-13T09:50:46;7.25;;;2.40;;
10509;SDS011;5303;53.266;10.410;2023-07-13T09:53:13;7.80;;;2.50;;
10509;SDS011;5303;53.266;10.410;2023-07-13T09:55:43;6.13;;;2.55;;
10509;SDS011;5303;53.266;10.410;2023-07-13T09:58:17;8.80;;;2.53;;
10509;SDS011;5303;53.266;10.410;2023-07-13T10:00:53;9.73;;;2.63;;
10509;SDS011;5303;53.266;10.410;2023-07-13T10:03:33;6.30;;;2.57;;
10509;SDS011;5303;53.266;10.410;2023-07-13T10:06:21;4.53;;;2.30;;
10509;SDS011;5303;53.266;10.410;2023-07-13T10:08:47;8.70;;;3.37;;
10509;SDS011;5303;53.266;10.410;2023-07-13T10:13:54;4.83;;;2.80;;
10509;SDS011;5303;53.266;10.410;2023-07-13T10:16:25;8.23;;;3.07;;
10509;SDS011;5303;53.266;10.410;2023-07-13T10:18:57;6.93;;;2.70;;
10509;SDS011;5303;53.266;10.410;2023-07-13T10:21:27;5.43;;;2.53;;
10509;SDS011;5303;53.266;10.410;2023-07-13T10:24:06;5.57;;;2.33;;
10509;SDS011;5303;53.266;10.410;2023-07-13T10:26:39;5.93;;;2.43;;
10509;SDS011;5303;53.266;10.410;2023-07-13T10:29:26;5.40;;;2.00;;
10509;SDS011;5303;53.266;10.410;2023-07-13T10:31:54;3.93;;;2.07;;
10509;SDS011;5303;53.266;10.410;2023-07-13T10:34:22;4.50;;;2.47;;
10509;SDS011;5303;53.266;10.410;2023-07-13T10:36:48;5.73;;;2.30;;
10509;SDS011;5303;53.266;10.410;2023-07-13T10:39:18;6.43;;;2.53;;
10509;SDS011;5303;53.266;10.410;2023-07-13T10:41:46;6.73;;;2.50;;
10509;SDS011;5303;53.266;10.410;2023-07-13T10:44:50;5.80;;;2.60;;
10509;SDS011;5303;53.266;10.410;2023-07-13T10:47:11;5.88;;;2.00;;
10509;SDS011;5303;53.266;10.410;2023-07-13T10:49:40;4.53;;;2.30;;
10509;SDS011;5303;53.266;10.410;2023-07-13T10:52:27;6.65;;;2.65;;
10509;SDS011;5303;53.266;10.410;2023-07-13T10:58:03;5.82;;;2.30;;
10509;SDS011;5303;53.266;10.410;2023-07-13T11:00:48;5.63;;;2.42;;
10509;SDS011;5303;53.266;10.410;2023-07-13T11:03:20;5.55;;;2.30;;
10509;SDS011;5303;53.266;10.410;2023-07-13T11:05:48;5.13;;;2.50;;
10509;SDS011;5303;53.266;10.410;2023-07-13T11:08:18;6.68;;;2.42;;
10509;SDS011;5303;53.266;10.410;2023-07-13T11:10:53;3.38;;;2.30;;
10509;SDS011;5303;53.266;10.410;2023-07-13T11:13:55;4.72;;;2.28;;
10509;SDS011;5303;53.266;10.410;2023-07-13T11:18:49;5.25;;;2.40;;
10509;SDS011;5303;53.266;10.410;2023-07-13T11:21:20;5.28;;;2.03;;
10509;SDS011;5303;53.266;10.410;2023-07-13T11:24:14;5.18;;;2.15;;
10509;SDS011;5303;53.266;10.410;2023-07-13T11:31:40;5.03;;;2.22;;
10509;SDS011;5303;53.266;10.410;2023-07-13T11:34:18;4.88;;;2.30;;
10509;SDS011;5303;53.266;10.410;2023-07-13T11:36:55;4.95;;;2.33;;
10509;SDS011;5303;53.266;10.410;2023-07-13T11:41:56;4.28;;;2.00;;
10509;SDS011;5303;53.266;10.410;2023-07-13T11:44:25;5.28;;;2.35;;
10509;SDS011;5303;53.266;10.410;2023-07-13T11:46:52;5.43;;;2.08;;
10509;SDS011;5303;53.266;10.410;2023-07-13T11:49:20;4.07;;;2.30;;
10509;SDS011;5303;53.266;10.410;2023-07-13T11:51:47;5.28;;;2.10;;
10509;SDS011;5303;53.266;10.410;2023-07-13T11:59:49;3.75;;;2.40;;
10509;SDS011;5303;53.266;10.410;2023-07-13T12:04:49;5.50;;;2.50;;
10509;SDS011;5303;53.266;10.410;2023-07-13T12:07:17;3.33;;;2.30;;
10509;SDS011;5303;53.266;10.410;2023-07-13T12:09:43;3.70;;;2.38;;
10509;SDS011;5303;53.266;10.410;2023-07-13T12:12:13;4.95;;;2.35;;
10509;SDS011;5303;53.266;10.410;2023-07-13T12:14:43;3.83;;;1.92;;
10509;SDS011;5303;53.266;10.410;2023-07-13T12:17:16;5.97;;;2.45;;
10509;SDS011;5303;53.266;10.410;2023-07-13T12:19:45;5.07;;;2.47;;
10509;SDS011;5303;53.266;10.410;2023-07-13T12:22:13;5.55;;;2.22;;
10509;SDS011;5303;53.266;10.410;2023-07-13T12:24:41;4.13;;;2.15;;
10509;SDS011;5303;53.266;10.410;2023-07-13T12:30:24;6.55;;;2.42;;
10509;SDS011;5303;53.266;10.410;2023-07-13T12:35:38;4.95;;;2.45;;
10509;SDS011;5303;53.266;10.410;2023-07-13T12:38:09;3.15;;;2.42;;
10509;SDS011;5303;53.266;10.410;2023-07-13T12:40:35;3.53;;;2.30;;
10509;SDS011;5303;53.266;10.410;2023-07-13T12:43:02;4.15;;;2.60;;
10509;SDS011;5303;53.266;10.410;2023-07-13T12:45:29;3.75;;;2.47;;
10509;SDS011;5303;53.266;10.410;2023-07-13T12:47:59;4.15;;;2.42;;
10509;SDS011;5303;53.266;10.410;2023-07-13T12:50:34;3.45;;;2.55;;
10509;SDS011;5303;53.266;10.410;2023-07-13T12:53:06;4.88;;;2.38;;
10509;SDS011;5303;53.266;10.410;2023-07-13T12:55:41;2.97;;;2.10;;
10509;SDS011;5303;53.266;10.410;2023-07-13T12:58:09;4.00;;;2.20;;
10509;SDS011;5303;53.266;10.410;2023-07-13T13:00:41;8.73;;;2.90;;
10509;SDS011;5303;53.266;10.410;2023-07-13T13:06:42;4.63;;;3.07;;
10509;SDS011;5303;53.266;10.410;2023-07-13T13:08:44;5.23;;;3.20;;
10509;SDS011;5303;53.266;10.410;2023-07-13T13:11:11;6.23;;;3.47;;
10509;SDS011;5303;53.266;10.410;2023-07-13T13:13:36;4.33;;;3.53;;
10509;SDS011;5303;53.266;10.410;2023-07-13T13:16:12;5.80;;;3.77;;
10509;SDS011;5303;53.266;10.410;2023-07-13T13:18:44;7.57;;;4.47;;
10509;SDS011;5303;53.266;10.410;2023-07-13T13:21:10;7.47;;;4.80;;
10509;SDS011;5303;53.266;10.410;2023-07-13T13:23:36;7.93;;;4.87;;
10509;SDS011;5303;53.266;10.410;2023-07-13T13:26:02;7.80;;;5.30;;
10509;SDS011;5303;53.266;10.410;2023-07-13T13:28:28;8.30;;;5.37;;
10509;SDS011;5303;53.266;10.410;2023-07-13T13:30:54;8.30;;;6.70;;
10509;SDS011;5303;53.266;10.410;2023-07-13T13:33:20;10.03;;;6.50;;
10509;SDS011;5303;53.266;10.410;2023-07-13T13:35:46;11.23;;;7.63;;
10509;SDS011;5303;53.266;10.410;2023-07-13T13:38:13;13.23;;;8.30;;
10509;SDS011;5303;53.266;10.410;2023-07-13T13:40:40;9.10;;;7.43;;
10509;SDS011;5303;53.266;10.410;2023-07-13T13:43:25;11.00;;;8.10;;
10509;SDS011;5303;53.266;10.410;2023-07-13T13:45:52;10.97;;;7.87;;
10509;SDS011;5303;53.266;10.410;2023-07-13T13:48:21;7.97;;;6.67;;
10509;SDS011;5303;53.266;10.410;2023-07-13T13:50:55;9.97;;;6.63;;
10509;SDS011;5303;53.266;10.410;2023-07-13T13:53:21;7.60;;;5.87;;
10509;SDS011;5303;53.266;10.410;2023-07-13T13:55:48;8.57;;;5.90;;
10509;SDS011;5303;53.266;10.410;2023-07-13T13:58:14;7.97;;;6.07;;
10509;SDS011;5303;53.266;10.410;2023-07-13T14:00:39;9.70;;;5.97;;
10509;SDS011;5303;53.266;10.410;2023-07-13T14:03:14;8.83;;;5.10;;
10509;SDS011;5303;53.266;10.410;2023-07-13T14:05:42;8.70;;;5.00;;
10509;SDS011;5303;53.266;10.410;2023-07-13T14:08:14;7.07;;;5.27;;
10509;SDS011;5303;53.266;10.410;2023-07-13T14:10:44;6.77;;;5.07;;
10509;SDS011;5303;53.266;10.410;2023-07-13T14:13:21;5.50;;;4.90;;
10509;SDS011;5303;53.266;10.410;2023-07-13T14:15:52;7.10;;;4.70;;
10509;SDS011;5303;53.266;10.410;2023-07-13T14:18:18;7.20;;;4.73;;
10509;SDS011;5303;53.266;10.410;2023-07-13T14:20:47;5.90;;;4.70;;
10509;SDS011;5303;53.266;10.410;2023-07-13T14:23:13;6.27;;;5.20;;
10509;SDS011;5303;53.266;10.410;2023-07-13T14:25:40;6.60;;;4.93;;
10509;SDS011;5303;53.266;10.410;2023-07-13T14:28:19;5.03;;;4.33;;
10509;SDS011;5303;53.266;10.410;2023-07-13T14:30:48;6.83;;;4.63;;
10509;SDS011;5303;53.266;10.410;2023-07-13T14:33:14;8.47;;;4.20;;
10509;SDS011;5303;53.266;10.410;2023-07-13T14:35:39;5.43;;;3.60;;
10509;SDS011;5303;53.266;10.410;2023-07-13T14:38:05;5.97;;;4.03;;
10509;SDS011;5303;53.266;10.410;2023-07-13T14:40:36;5.70;;;4.20;;
10509;SDS011;5303;53.266;10.410;2023-07-13T14:43:01;6.83;;;3.77;;
10509;SDS011;5303;53.266;10.410;2023-07-13T14:45:27;5.37;;;4.07;;
10509;SDS011;5303;53.266;10.410;2023-07-13T14:47:55;5.73;;;4.20;;
10509;SDS011;5303;53.266;10.410;2023-07-13T14:50:23;6.87;;;4.30;;
10509;SDS011;5303;53.266;10.410;2023-07-13T14:52:55;5.53;;;4.23;;
10509;SDS011;5303;53.266;10.410;2023-07-13T14:55:20;4.40;;;3.87;;
10509;SDS011;5303;53.266;10.410;2023-07-13T14:57:46;4.53;;;3.83;;
10509;SDS011;5303;53.266;10.410;2023-07-13T15:00:12;4.90;;;3.70;;
10509;SDS011;5303;53.266;10.410;2023-07-13T15:02:40;4.80;;;4.10;;
10509;SDS011;5303;53.266;10.410;2023-07-13T15:05:13;5.27;;;4.37;;
10509;SDS011;5303;53.266;10.410;2023-07-13T15:07:48;7.70;;;4.20;;
10509;SDS011;5303;53.266;10.410;2023-07-13T15:12:41;4.57;;;3.73;;
10509;SDS011;5303;53.266;10.410;2023-07-13T15:15:06;3.90;;;3.40;;
10509;SDS011;5303;53.266;10.410;2023-07-13T15:17:34;6.83;;;3.23;;
10509;SDS011;5303;53.266;10.410;2023-07-13T15:20:04;4.53;;;3.70;;
10509;SDS011;5303;53.266;10.410;2023-07-13T15:22:36;4.00;;;2.97;;
10509;SDS011;5303;53.266;10.410;2023-07-13T15:25:01;4.33;;;2.93;;
10509;SDS011;5303;53.266;10.410;2023-07-13T15:27:28;3.90;;;2.60;;
10509;SDS011;5303;53.266;10.410;2023-07-13T15:29:54;2.97;;;2.57;;
10509;SDS011;5303;53.266;10.410;2023-07-13T15:32:19;4.57;;;2.80;;
10509;SDS011;5303;53.266;10.410;2023-07-13T15:34:44;4.77;;;2.90;;